createdAt,value
2018-04-19T00:02:25.864Z,59.59
2018-04-19T00:04:53.845Z,59.71
2018-04-19T00:07:20.992Z,59.61
2018-04-19T00:09:48.097Z,59.61
2018-04-19T00:12:16.004Z,59.57
2018-04-19T00:14:42.998Z,59.30
2018-04-19T00:17:09.957Z,59.47
2018-04-19T00:19:37.514Z,59.50
2018-04-19T00:22:05.747Z,59.63
2018-04-19T00:24:32.323Z,59.64
2018-04-19T00:27:00.023Z,59.61
2018-04-19T00:29:28.660Z,59.56
2018-04-19T00:31:55.606Z,59.58
2018-04-19T00:34:22.495Z,59.62
2018-04-19T00:36:49.520Z,59.69
2018-04-19T00:39:18.063Z,59.57
2018-04-19T00:41:46.243Z,59.67
2018-04-19T00:44:13.406Z,59.75
2018-04-19T00:46:40.558Z,59.57
2018-04-19T00:49:07.341Z,59.63
2018-04-19T00:51:35.967Z,61.44
2018-04-19T00:54:03.394Z,62.66
2018-04-19T00:56:31.049Z,63.51
2018-04-19T00:58:58.092Z,63.90
2018-04-19T01:01:25.217Z,65.12
2018-04-19T01:03:52.057Z,64.98
2018-04-19T01:06:20.637Z,65.14
2018-04-19T01:08:48.984Z,65.17
2018-04-19T01:11:16.713Z,67.00
2018-04-19T01:13:43.898Z,67.91
2018-04-19T01:16:10.694Z,67.42
2018-04-19T01:18:38.043Z,67.04
2018-04-19T01:21:07.410Z,67.00
2018-04-19T01:23:34.587Z,66.64
2018-04-19T01:26:02.260Z,66.73
2018-04-19T01:28:30.449Z,66.70
2018-04-19T01:33:32.727Z,66.71
2018-04-19T01:36:12.143Z,66.68
2018-04-19T01:38:40.673Z,66.94
2018-04-19T01:41:08.073Z,66.65
2018-04-19T01:43:35.599Z,66.14
2018-04-19T01:46:02.772Z,65.27
2018-04-19T01:48:29.887Z,64.71
2018-04-19T01:50:57.245Z,64.95
2018-04-19T01:53:24.934Z,65.29
2018-04-19T01:55:51.949Z,65.00
2018-04-19T01:58:20.905Z,64.45
2018-04-19T02:00:51.597Z,64.34
2018-04-19T02:03:19.437Z,63.98
2018-04-19T02:05:46.492Z,64.00
2018-04-19T02:08:13.308Z,64.07
2018-04-19T02:10:40.732Z,64.66
2018-04-19T02:13:07.871Z,65.29
2018-04-19T02:18:09.122Z,65.97
2018-04-19T02:20:36.411Z,66.11
2018-04-19T02:23:04.261Z,66.33
2018-04-19T02:25:31.508Z,65.96
2018-04-19T02:27:58.467Z,66.10
2018-04-19T02:30:26.491Z,66.18
2018-04-19T02:32:53.881Z,65.54
2018-04-19T02:35:20.708Z,65.71
2018-04-19T02:37:47.622Z,65.95
2018-04-19T02:40:15.258Z,66.25
2018-04-19T02:42:43.169Z,65.53
2018-04-19T02:45:11.222Z,65.09
2018-04-19T02:47:38.678Z,65.16
2018-04-19T02:50:07.055Z,65.25
2018-04-19T02:52:34.607Z,65.77
2018-04-19T02:55:02.318Z,65.90
2018-04-19T02:57:29.741Z,66.00
2018-04-19T02:59:58.198Z,66.05
2018-04-19T03:02:25.762Z,65.72
2018-04-19T03:04:53.111Z,65.73
2018-04-19T03:07:20.529Z,65.38
2018-04-19T03:09:47.295Z,66.06
2018-04-19T03:12:14.186Z,66.51
2018-04-19T03:14:41.201Z,67.17
2018-04-19T03:17:09.037Z,67.76
2018-04-19T03:19:37.972Z,68.03
2018-04-19T03:22:05.823Z,67.83
2018-04-19T03:24:32.929Z,68.38
2018-04-19T03:27:00.103Z,68.56
2018-04-19T03:29:27.692Z,69.18
2018-04-19T03:31:55.784Z,69.23
2018-04-19T03:34:25.569Z,69.93
2018-04-19T03:36:52.606Z,70.24
2018-04-19T03:39:20.126Z,70.27
2018-04-19T03:41:47.452Z,69.91
2018-04-19T03:44:15.525Z,70.32
2018-04-19T03:46:42.874Z,70.34
2018-04-19T03:49:10.557Z,70.40
2018-04-19T03:51:37.435Z,70.02
2018-04-19T03:54:04.323Z,70.52
2018-04-19T03:56:31.384Z,70.83
2018-04-19T03:58:59.025Z,70.98
2018-04-19T04:03:59.695Z,71.30
2018-04-19T04:06:26.783Z,72.10
2018-04-19T04:08:54.359Z,72.62
2018-04-19T04:11:22.598Z,73.00
2018-04-19T04:16:44.342Z,74.93
2018-04-19T04:19:23.794Z,74.91
2018-04-19T04:22:03.243Z,74.35
2018-04-19T04:24:30.211Z,73.67
2018-04-19T04:26:57.717Z,73.46
2018-04-19T04:29:25.087Z,73.61
2018-04-19T04:31:52.421Z,72.89
2018-04-19T04:34:19.444Z,73.38
2018-04-19T04:36:45.932Z,73.33
2018-04-19T04:39:13.586Z,74.30
2018-04-19T04:41:40.248Z,72.06
2018-04-19T04:44:07.616Z,71.46
2018-04-19T04:49:34.105Z,71.71
2018-04-19T04:52:00.940Z,76.55
2018-04-19T04:54:27.753Z,70.58
2018-04-19T04:56:55.509Z,71.31
2018-04-19T04:59:22.480Z,71.52
2018-04-19T05:01:49.822Z,71.27
2018-04-19T05:04:16.516Z,70.86
2018-04-19T05:06:44.400Z,70.45
2018-04-19T05:09:11.391Z,70.47
2018-04-19T05:11:38.610Z,69.86
2018-04-19T05:14:05.867Z,69.99
2018-04-19T05:16:33.742Z,69.76
2018-04-19T05:19:01.325Z,69.10
2018-04-19T05:21:28.790Z,68.85
2018-04-19T05:23:56.649Z,68.99
2018-04-19T05:26:24.077Z,68.65
2018-04-19T05:28:51.378Z,68.68
2018-04-19T05:31:18.749Z,68.86
2018-04-19T05:33:46.268Z,68.99
2018-04-19T05:36:13.295Z,68.63
2018-04-19T05:38:41.087Z,68.74
2018-04-19T05:41:08.535Z,69.21
2018-04-19T05:43:36.151Z,69.25
2018-04-19T05:46:03.026Z,70.01
2018-04-19T05:48:30.153Z,70.32
2018-04-19T05:50:57.480Z,69.95
2018-04-19T05:53:25.540Z,70.08
2018-04-19T05:55:52.752Z,69.68
2018-04-19T05:58:19.717Z,68.67
2018-04-19T06:00:47.414Z,68.82
2018-04-19T06:03:14.938Z,68.79
2018-04-19T06:05:42.062Z,69.34
2018-04-19T06:08:10.008Z,70.17
2018-04-19T06:10:37.273Z,69.61
2018-04-19T06:13:04.138Z,69.52
2018-04-19T06:15:33.347Z,69.85
2018-04-19T06:18:00.291Z,68.91
2018-04-19T06:20:27.182Z,68.56
2018-04-19T06:22:54.798Z,69.00
2018-04-19T06:25:21.806Z,68.33
2018-04-19T06:27:48.572Z,67.85
2018-04-19T06:30:15.133Z,67.30
2018-04-19T06:32:42.026Z,67.79
2018-04-19T06:35:10.374Z,67.07
2018-04-19T06:37:37.352Z,67.76
2018-04-19T06:40:05.430Z,67.48
2018-04-19T06:42:32.983Z,66.91
2018-04-19T06:45:00.737Z,66.69
2018-04-19T06:47:27.850Z,65.69
2018-04-19T06:49:54.769Z,66.29
2018-04-19T06:52:22.221Z,66.78
2018-04-19T06:54:50.015Z,65.94
2018-04-19T06:57:16.707Z,64.78
2018-04-19T06:59:44.858Z,64.81
2018-04-19T07:02:11.911Z,65.28
2018-04-19T07:04:38.651Z,65.08
2018-04-19T07:07:05.808Z,63.55
2018-04-19T07:09:32.592Z,64.45
2018-04-19T07:11:59.462Z,64.10
2018-04-19T07:14:26.866Z,64.46
2018-04-19T07:16:53.540Z,63.75
2018-04-19T07:19:20.417Z,64.05
2018-04-19T07:21:48.425Z,63.26
2018-04-19T07:24:16.318Z,62.48
2018-04-19T07:26:43.709Z,61.79
2018-04-19T07:29:11.173Z,61.39
2018-04-19T07:31:38.767Z,61.29
2018-04-19T07:34:06.180Z,61.08
2018-04-19T07:36:33.402Z,60.47
2018-04-19T07:39:00.894Z,60.89
2018-04-19T07:41:27.976Z,60.46
2018-04-19T07:43:56.508Z,60.10
2018-04-19T07:46:23.515Z,58.73
2018-04-19T07:48:51.359Z,58.98
2018-04-19T07:51:18.760Z,59.27
2018-04-19T07:53:46.550Z,59.51
2018-04-19T07:56:13.529Z,59.44
2018-04-19T07:58:40.804Z,59.84
2018-04-19T08:01:08.125Z,59.08
2018-04-19T08:03:35.020Z,59.21
2018-04-19T08:06:02.005Z,58.94
2018-04-19T08:08:28.986Z,58.23
2018-04-19T08:10:56.162Z,58.76
2018-04-19T08:13:23.450Z,59.31
2018-04-19T08:15:50.390Z,59.46
2018-04-19T08:18:17.540Z,59.22
2018-04-19T08:20:44.403Z,59.36
2018-04-19T08:23:11.357Z,58.91
2018-04-19T08:25:38.843Z,58.90
2018-04-19T08:28:05.833Z,59.13
2018-04-19T08:30:32.645Z,57.92
2018-04-19T08:32:59.876Z,57.97
2018-04-19T08:35:26.748Z,57.98
2018-04-19T08:37:53.883Z,57.37
2018-04-19T08:40:21.149Z,57.05
2018-04-19T08:42:48.934Z,57.41
2018-04-19T08:45:16.172Z,57.00
2018-04-19T08:47:43.285Z,57.61
2018-04-19T08:50:17.112Z,57.03
2018-04-19T08:52:44.301Z,56.29
2018-04-19T08:55:11.485Z,56.26
2018-04-19T08:57:38.901Z,56.74
2018-04-19T09:00:06.695Z,56.97
2018-04-19T09:02:34.696Z,56.45
2018-04-19T09:05:01.529Z,56.17
2018-04-19T09:07:28.488Z,55.71
2018-04-19T09:09:55.883Z,56.00
2018-04-19T09:12:23.805Z,54.94
2018-04-19T09:14:51.078Z,55.16
2018-04-19T09:17:19.427Z,55.11
2018-04-19T09:19:46.782Z,54.05
2018-04-19T09:22:13.644Z,54.44
2018-04-19T09:24:40.331Z,54.96
2018-04-19T09:27:07.466Z,53.78
2018-04-19T09:29:34.411Z,52.22
2018-04-19T09:32:02.606Z,52.04
2018-04-19T09:34:31.244Z,52.53
2018-04-19T09:36:58.672Z,52.33
2018-04-19T09:39:25.870Z,52.90
2018-04-19T09:41:52.499Z,53.38
2018-04-19T09:44:21.417Z,52.67
2018-04-19T09:46:48.085Z,51.67
2018-04-19T09:49:15.402Z,51.59
2018-04-19T09:51:42.718Z,52.10
2018-04-19T09:54:10.763Z,52.00
2018-04-19T09:56:38.741Z,50.94
2018-04-19T09:59:11.238Z,51.12
2018-04-19T10:01:44.140Z,51.88
2018-04-19T10:04:13.576Z,51.66
2018-04-19T10:06:40.621Z,51.45
2018-04-19T10:09:07.356Z,51.58
2018-04-19T10:11:34.469Z,51.32
2018-04-19T10:14:01.443Z,50.81
2018-04-19T10:16:28.564Z,49.74
2018-04-19T10:18:55.713Z,50.71
2018-04-19T10:21:22.836Z,49.30
2018-04-19T10:23:49.567Z,49.67
2018-04-19T10:26:16.549Z,49.92
2018-04-19T10:28:43.445Z,50.11
2018-04-19T10:31:11.313Z,49.58
2018-04-19T10:33:39.961Z,49.61
2018-04-19T10:36:06.844Z,49.49
2018-04-19T10:38:35.343Z,48.98
2018-04-19T10:41:02.812Z,49.06
2018-04-19T10:43:29.518Z,49.09
2018-04-19T10:45:56.141Z,49.24
2018-04-19T10:48:22.596Z,49.22
2018-04-19T10:50:49.728Z,49.00
2018-04-19T10:53:17.156Z,48.84
2018-04-19T10:55:43.787Z,48.04
2018-04-19T10:58:10.945Z,47.56
2018-04-19T11:00:38.532Z,46.88
2018-04-19T11:03:05.576Z,46.82
2018-04-19T11:05:32.891Z,46.37
2018-04-19T11:07:59.672Z,46.74
2018-04-19T11:10:26.966Z,46.70
2018-04-19T11:12:53.574Z,47.26
2018-04-19T11:15:20.433Z,47.82
2018-04-19T11:17:47.694Z,47.89
2018-04-19T11:20:14.242Z,47.73
2018-04-19T11:22:41.135Z,47.40
2018-04-19T11:25:07.930Z,46.95
2018-04-19T11:27:36.428Z,47.55
2018-04-19T11:30:03.416Z,47.00
2018-04-19T11:32:30.269Z,46.35
2018-04-19T11:34:56.955Z,46.32
2018-04-19T11:37:24.405Z,46.17
2018-04-19T11:39:50.965Z,45.89
2018-04-19T11:42:18.072Z,46.45
2018-04-19T11:44:45.285Z,46.70
2018-04-19T11:47:12.060Z,46.62
2018-04-19T11:49:39.020Z,46.49
2018-04-19T11:52:06.465Z,46.61
2018-04-19T11:54:35.193Z,45.14
2018-04-19T11:57:02.328Z,45.31
2018-04-19T11:59:29.498Z,44.96
2018-04-19T12:01:56.537Z,45.33
2018-04-19T12:04:23.311Z,45.24
2018-04-19T12:06:50.050Z,45.49
2018-04-19T12:09:17.263Z,45.44
2018-04-19T12:11:44.559Z,45.72
2018-04-19T12:14:11.171Z,45.74
2018-04-19T12:16:37.992Z,46.39
2018-04-19T12:19:05.121Z,46.73
2018-04-19T12:21:31.664Z,46.19
2018-04-19T12:23:59.328Z,45.90
2018-04-19T12:26:26.736Z,46.48
2018-04-19T12:28:54.040Z,47.51
2018-04-19T12:31:20.874Z,47.75
2018-04-19T12:33:47.643Z,47.00
2018-04-19T12:36:15.113Z,47.02
2018-04-19T12:38:41.652Z,47.13
2018-04-19T12:41:08.687Z,46.24
2018-04-19T12:43:35.984Z,45.91
2018-04-19T12:46:02.777Z,46.12
2018-04-19T12:48:29.353Z,45.43
2018-04-19T12:50:56.644Z,45.45
2018-04-19T12:53:23.706Z,45.69
2018-04-19T12:55:50.442Z,46.00
2018-04-19T12:58:18.125Z,46.79
2018-04-19T13:00:44.917Z,46.73
2018-04-19T13:03:12.005Z,46.29
2018-04-19T13:05:39.715Z,47.13
2018-04-19T13:08:06.687Z,47.71
2018-04-19T13:10:34.051Z,47.95
2018-04-19T13:13:00.455Z,48.22
2018-04-19T13:15:27.157Z,47.92
2018-04-19T13:17:54.365Z,48.26
2018-04-19T13:20:22.110Z,47.19
2018-04-19T13:22:49.024Z,48.00
2018-04-19T13:25:15.841Z,49.27
2018-04-19T13:27:42.438Z,49.67
2018-04-19T13:30:09.669Z,48.92
2018-04-19T13:32:36.581Z,48.48
2018-04-19T13:35:03.559Z,48.79
2018-04-19T13:37:30.953Z,48.59
2018-04-19T13:39:57.796Z,48.59
2018-04-19T13:42:24.636Z,48.27
2018-04-19T13:44:51.377Z,48.48
2018-04-19T13:47:17.916Z,48.60
2018-04-19T13:49:44.336Z,48.83
2018-04-19T13:52:11.593Z,49.40
2018-04-19T13:54:38.685Z,49.99
2018-04-19T13:57:05.644Z,50.77
2018-04-19T13:59:32.328Z,50.78
2018-04-19T14:01:58.829Z,51.23
2018-04-19T14:04:25.621Z,51.33
2018-04-19T14:06:52.968Z,51.56
2018-04-19T14:09:20.216Z,50.85
2018-04-19T14:11:46.991Z,50.70
2018-04-19T14:14:13.937Z,50.70
2018-04-19T14:16:40.991Z,50.63
2018-04-19T14:19:08.025Z,51.00
2018-04-19T14:21:35.517Z,51.03
2018-04-19T14:24:02.492Z,51.17
2018-04-19T14:26:29.152Z,51.06
2018-04-19T14:28:56.184Z,50.83
2018-04-19T14:31:25.433Z,51.24
2018-04-19T14:33:52.869Z,51.38
2018-04-19T14:36:19.717Z,51.64
2018-04-19T14:38:46.539Z,51.54
2018-04-19T14:41:13.409Z,51.63
2018-04-19T14:43:40.345Z,51.35
2018-04-19T14:46:07.170Z,51.67
2018-04-19T14:48:34.918Z,51.47
2018-04-19T14:51:02.284Z,51.37
2018-04-19T14:53:29.372Z,51.57
2018-04-19T14:55:56.533Z,51.48
2018-04-19T14:58:23.771Z,51.70
2018-04-19T15:00:51.054Z,51.54
2018-04-19T15:03:17.644Z,51.45
2018-04-19T15:05:44.110Z,51.73
2018-04-19T15:08:10.851Z,51.98
2018-04-19T15:10:37.407Z,52.36
2018-04-19T15:13:04.429Z,52.62
2018-04-19T15:15:31.463Z,52.51
2018-04-19T15:17:58.002Z,51.83
2018-04-19T15:20:24.882Z,51.05
2018-04-19T15:22:51.494Z,51.42
2018-04-19T15:25:18.338Z,51.74
2018-04-19T15:27:46.927Z,51.50
2018-04-19T15:30:14.487Z,51.43
2018-04-19T15:32:41.552Z,51.55
2018-04-19T15:35:08.550Z,51.40
2018-04-19T15:37:35.414Z,51.54
2018-04-19T15:40:02.142Z,51.33
2018-04-19T15:42:28.783Z,51.26
2018-04-19T15:44:55.979Z,51.41
2018-04-19T15:47:22.828Z,51.03
2018-04-19T15:49:49.556Z,51.02
2018-04-19T15:52:16.196Z,51.18
2018-04-19T15:54:42.960Z,50.58
2018-04-19T15:57:10.158Z,50.47
2018-04-19T15:59:37.086Z,50.25
2018-04-19T16:02:03.628Z,49.91
2018-04-19T16:04:32.577Z,49.86
2018-04-19T16:06:59.256Z,50.07
2018-04-19T16:09:25.904Z,49.99
2018-04-19T16:11:53.083Z,49.79
2018-04-19T16:14:19.196Z,49.26
2018-04-19T16:16:46.075Z,49.90
2018-04-19T16:19:12.508Z,49.93
2018-04-19T16:21:39.483Z,50.08
2018-04-19T16:24:06.195Z,49.73
2018-04-19T16:26:33.171Z,49.95
2018-04-19T16:29:00.267Z,49.71
2018-04-19T16:31:27.472Z,48.66
2018-04-19T16:33:55.131Z,48.77
2018-04-19T16:36:21.906Z,49.30
2018-04-19T16:38:48.613Z,48.93
2018-04-19T16:41:15.727Z,49.04
2018-04-19T16:43:43.766Z,49.32
2018-04-19T16:46:10.687Z,49.71
2018-04-19T16:48:41.609Z,49.82
2018-04-19T16:51:08.550Z,50.06
2018-04-19T16:53:35.749Z,49.91
2018-04-19T16:56:02.643Z,50.00
2018-04-19T16:58:29.319Z,49.84
2018-04-19T17:00:56.369Z,49.71
2018-04-19T17:03:23.393Z,49.99
2018-04-19T17:05:50.187Z,49.91
2018-04-19T17:08:17.210Z,50.11
2018-04-19T17:10:43.991Z,50.19
2018-04-19T17:13:10.860Z,50.49
2018-04-19T17:15:38.582Z,50.16
2018-04-19T17:18:06.104Z,50.32
2018-04-19T17:20:33.129Z,50.58
2018-04-19T17:22:59.867Z,50.61
2018-04-19T17:25:26.683Z,50.79
2018-04-19T17:27:53.212Z,50.92
2018-04-19T17:30:20.184Z,50.76
2018-04-19T17:32:47.465Z,50.67
2018-04-19T17:35:14.948Z,50.69
2018-04-19T17:37:42.490Z,50.70
2018-04-19T17:40:09.670Z,50.42
2018-04-19T17:42:37.737Z,49.91
2018-04-19T17:45:04.528Z,49.73
2018-04-19T17:47:31.898Z,50.10
2018-04-19T17:49:59.263Z,50.01
2018-04-19T17:52:26.324Z,49.84
2018-04-19T17:54:54.228Z,49.76
2018-04-19T17:57:22.753Z,48.99
2018-04-19T17:59:49.698Z,48.85
2018-04-19T18:02:16.750Z,49.09
2018-04-19T18:04:44.786Z,48.43
2018-04-19T18:07:11.950Z,48.20
2018-04-19T18:09:38.619Z,48.00
2018-04-19T18:12:05.842Z,47.99
2018-04-19T18:14:33.340Z,48.06
2018-04-19T18:17:00.155Z,47.69
2018-04-19T18:19:27.356Z,46.92
2018-04-19T18:21:54.460Z,47.11
2018-04-19T18:24:21.854Z,46.10
2018-04-19T18:26:48.755Z,46.39
2018-04-19T18:29:15.804Z,45.18
2018-04-19T18:31:43.654Z,46.49
2018-04-19T18:34:11.567Z,45.53
2018-04-19T18:36:38.297Z,45.64
2018-04-19T18:39:06.226Z,45.54
2018-04-19T18:41:32.982Z,45.92
2018-04-19T18:44:00.016Z,45.84
2018-04-19T18:46:27.585Z,45.60
2018-04-19T18:48:54.496Z,46.12
2018-04-19T18:51:21.447Z,46.07
2018-04-19T18:53:48.082Z,46.31
2018-04-19T18:56:15.202Z,45.95
2018-04-19T18:58:42.902Z,45.50
2018-04-19T19:01:09.592Z,46.13
2018-04-19T19:03:36.599Z,46.29
2018-04-19T19:06:03.784Z,46.73
2018-04-19T19:08:30.477Z,45.76
2018-04-19T19:10:57.508Z,46.03
2018-04-19T19:13:25.383Z,48.88
2018-04-19T19:18:58.057Z,46.04
2018-04-19T19:21:28.924Z,46.50
2018-04-19T19:23:56.877Z,46.31
2018-04-19T19:26:23.692Z,46.50
2018-04-19T19:28:51.591Z,50.44
2018-04-19T19:31:18.314Z,66.49
2018-04-19T19:33:44.937Z,59.31
2018-04-19T19:36:12.276Z,56.69
2018-04-19T19:38:39.301Z,48.16
2018-04-19T19:41:07.124Z,49.68
2018-04-19T19:43:34.224Z,48.67
2018-04-19T19:46:01.348Z,47.57
2018-04-19T19:48:28.885Z,48.73
2018-04-19T19:50:56.548Z,48.15
2018-04-19T19:53:23.288Z,47.99
2018-04-19T19:55:50.427Z,48.78
2018-04-19T19:58:17.623Z,48.74
2018-04-19T20:00:44.815Z,54.36
2018-04-19T20:03:11.985Z,58.24
2018-04-19T20:05:39.990Z,50.11
2018-04-19T20:08:06.876Z,53.03
2018-04-19T20:10:33.672Z,49.20
2018-04-19T20:13:02.139Z,49.33
2018-04-19T20:15:28.697Z,50.81
2018-04-19T20:17:55.229Z,55.39
2018-04-19T20:20:22.079Z,52.83
2018-04-19T20:22:49.783Z,56.29
2018-04-19T20:25:16.380Z,49.95
2018-04-19T20:27:43.341Z,49.71
2018-04-19T20:30:10.941Z,50.17
2018-04-19T20:32:38.124Z,51.03
2018-04-19T20:35:05.898Z,54.43
2018-04-19T20:37:34.579Z,52.74
2018-04-19T20:40:01.245Z,50.12
2018-04-19T20:42:27.879Z,49.29
2018-04-19T20:44:54.765Z,51.73
2018-04-19T20:47:22.058Z,50.54
2018-04-19T20:49:49.033Z,49.87
2018-04-19T20:52:16.647Z,49.79
2018-04-19T20:54:43.507Z,49.85
2018-04-19T20:57:10.966Z,50.34
2018-04-19T20:59:38.174Z,50.44
2018-04-19T21:02:04.889Z,50.64
2018-04-19T21:04:31.696Z,50.54
2018-04-19T21:06:59.806Z,50.93
2018-04-19T21:09:27.560Z,50.94
2018-04-19T21:11:54.744Z,50.90
2018-04-19T21:14:22.216Z,50.61
2018-04-19T21:16:49.834Z,50.29
2018-04-19T21:19:17.322Z,50.05
2018-04-19T21:21:44.706Z,49.74
2018-04-19T21:24:11.857Z,49.34
2018-04-19T21:26:39.249Z,49.25
2018-04-19T21:29:06.821Z,48.75
2018-04-19T21:31:34.703Z,48.63
2018-04-19T21:34:01.803Z,49.03
2018-04-19T21:36:29.219Z,49.22
2018-04-19T21:38:56.115Z,49.39
2018-04-19T21:41:23.006Z,49.21
2018-04-19T21:43:50.111Z,49.01
2018-04-19T21:46:17.664Z,49.08
2018-04-19T21:48:44.362Z,49.01
2018-04-19T21:51:11.482Z,48.77
2018-04-19T21:53:39.009Z,48.81
2018-04-19T21:56:06.354Z,48.67
2018-04-19T21:58:33.439Z,48.76
2018-04-19T22:01:00.264Z,48.78
2018-04-19T22:03:27.280Z,48.33
2018-04-19T22:05:54.412Z,48.54
2018-04-19T22:08:21.446Z,48.67
2018-04-19T22:10:49.469Z,48.68
2018-04-19T22:13:16.344Z,48.48
2018-04-19T22:15:43.744Z,48.84
2018-04-19T22:18:11.630Z,48.99
2018-04-19T22:20:39.076Z,49.11
2018-04-19T22:23:06.286Z,48.94
2018-04-19T22:25:34.718Z,48.83
2018-04-19T22:28:02.039Z,48.77
2018-04-19T22:30:29.474Z,48.60
2018-04-19T22:32:56.548Z,48.48
2018-04-19T22:35:23.393Z,48.47
2018-04-19T22:37:51.240Z,48.55
2018-04-19T22:40:18.615Z,48.19
2018-04-19T22:42:45.833Z,48.49
2018-04-19T22:45:13.592Z,48.42
2018-04-19T22:47:41.625Z,48.26
2018-04-19T22:50:09.207Z,48.36
2018-04-19T22:52:36.249Z,48.36
2018-04-19T22:55:04.585Z,48.45
2018-04-19T22:57:31.729Z,48.25
2018-04-19T22:59:58.981Z,48.26
2018-04-19T23:02:26.177Z,48.22
2018-04-19T23:04:54.024Z,49.57
2018-04-19T23:07:27.787Z,49.78
2018-04-19T23:09:55.544Z,49.72
2018-04-19T23:12:23.170Z,49.75
2018-04-19T23:14:50.826Z,49.70
2018-04-19T23:17:19.162Z,50.03
2018-04-19T23:19:46.155Z,50.49
2018-04-19T23:22:13.668Z,50.46
2018-04-19T23:24:41.614Z,49.93
2018-04-19T23:27:08.954Z,49.82
2018-04-19T23:29:36.180Z,49.75
2018-04-19T23:32:03.681Z,49.52
2018-04-19T23:34:31.760Z,49.41
2018-04-19T23:36:59.211Z,48.87
2018-04-19T23:39:26.499Z,48.77
2018-04-19T23:41:54.996Z,48.49
2018-04-19T23:44:22.934Z,48.56
2018-04-19T23:46:49.968Z,48.68
2018-04-19T23:49:17.430Z,48.76
2018-04-19T23:51:45.933Z,48.98
2018-04-19T23:54:13.355Z,48.96
2018-04-19T23:56:40.789Z,49.35
2018-04-19T23:59:07.923Z,49.65
